West Hills, New York
Current Conditions -  °F | °C
As of 9:53 PM on Thursday 18 Dec 2014 (Local Time) from KFRG Reporting Station
Clear Clear  
Wind Chill: 31°   Ceiling: Unl
Heat Index: 36°   Visibility: 10mi
Dew Point: 26°   Wind: 6mph
Humidity: 67%   Direction: 270°W
Pressure: 29.97"   Gusts: NA
Location:  40.8966°N, 73.4362°W
Report Text: KFRG 190253Z 27005KT 10SM CLR 02/M03 A2997 RMK AO2 SLP149 T00221033 51012
Loading
Personal Weather Stations






























Interactive Weather Map New forecast layout! Learn more

10-Day Weather Forecast

Advertisements
Track Severe Weather on mobile